createdAt,value
2022-08-02T00:01:11.290Z,28.51
2022-08-02T00:03:40.711Z,28.48
2022-08-02T00:06:10.653Z,28.48
2022-08-02T00:08:39.757Z,28.46
2022-08-02T00:11:09.037Z,28.45
2022-08-02T00:13:38.556Z,28.45
2022-08-02T00:16:07.900Z,28.47
2022-08-02T00:18:37.515Z,28.49
2022-08-02T00:21:06.825Z,28.50
2022-08-02T00:24:27.487Z,28.47
2022-08-02T00:26:25.529Z,28.41
2022-08-02T00:28:55.490Z,28.36
2022-08-02T00:31:25.090Z,28.25
2022-08-02T00:34:26.389Z,28.12
2022-08-02T00:36:44.130Z,28.00
2022-08-02T00:39:34.871Z,27.89
2022-08-02T00:42:03.498Z,27.82
2022-08-02T00:44:32.919Z,27.80
2022-08-02T00:47:02.568Z,27.87
2022-08-02T00:49:31.870Z,27.96
2022-08-02T00:52:02.945Z,28.00
2022-08-02T00:54:32.412Z,28.02
2022-08-02T00:57:01.632Z,28.03
2022-08-02T00:59:31.469Z,28.03
2022-08-02T01:02:00.934Z,28.03
2022-08-02T01:04:32.257Z,27.99
2022-08-02T01:07:12.046Z,27.95
2022-08-02T01:09:47.158Z,27.90
2022-08-02T01:12:17.031Z,27.89
2022-08-02T01:14:52.926Z,27.83
2022-08-02T01:17:35.866Z,27.69
2022-08-02T01:20:27.067Z,27.61
2022-08-02T01:23:11.469Z,27.60
2022-08-02T01:25:55.137Z,27.55
2022-08-02T01:28:51.021Z,27.50
2022-08-02T01:31:37.063Z,27.47
2022-08-02T01:34:31.803Z,27.43
2022-08-02T01:37:16.591Z,27.41
2022-08-02T01:39:48.668Z,27.41
2022-08-02T01:42:19.590Z,27.40
2022-08-02T01:44:52.218Z,27.33
2022-08-02T01:47:36.565Z,27.26
2022-08-02T01:50:10.195Z,27.17
2022-08-02T01:52:53.497Z,27.09
2022-08-02T01:55:34.924Z,26.98
2022-08-02T01:58:26.382Z,26.88
2022-08-02T02:01:00.900Z,26.78
2022-08-02T02:03:33.871Z,26.67
2022-08-02T02:06:07.354Z,26.58
2022-08-02T02:08:41.629Z,26.51
2022-08-02T02:12:05.886Z,26.42
2022-08-02T02:14:05.052Z,26.34
2022-08-02T02:16:36.814Z,26.27
2022-08-02T02:19:10.556Z,26.21
2022-08-02T02:21:41.538Z,26.13
2022-08-02T02:24:11.974Z,26.05
2022-08-02T02:26:43.518Z,25.97
2022-08-02T02:29:27.443Z,25.88
2022-08-02T02:32:00.036Z,25.82
2022-08-02T02:34:38.853Z,25.73
2022-08-02T02:37:16.111Z,25.65
2022-08-02T02:39:53.588Z,25.60
2022-08-02T02:42:30.923Z,25.55
2022-08-02T02:45:02.336Z,25.46
2022-08-02T02:47:40.680Z,25.38
2022-08-02T02:50:13.356Z,25.33
2022-08-02T02:52:43.881Z,25.28
2022-08-02T02:55:14.093Z,25.26
2022-08-02T02:57:44.133Z,25.23
2022-08-02T03:00:17.098Z,25.19
2022-08-02T03:02:48.848Z,25.15
2022-08-02T03:05:18.130Z,25.05
2022-08-02T03:07:47.413Z,24.94
2022-08-02T03:10:16.679Z,24.87
2022-08-02T03:12:46.017Z,24.81
2022-08-02T03:15:16.699Z,24.74
2022-08-02T03:17:48.254Z,24.68
2022-08-02T03:20:23.805Z,24.60
2022-08-02T03:22:53.238Z,24.51
2022-08-02T03:25:22.352Z,24.43
2022-08-02T03:27:51.616Z,24.33
2022-08-02T03:30:21.040Z,24.27
2022-08-02T03:32:50.854Z,24.21
2022-08-02T03:35:24.218Z,24.14
2022-08-02T03:37:56.712Z,24.05
2022-08-02T03:40:29.127Z,23.97
2022-08-02T03:42:58.960Z,23.90
2022-08-02T03:45:30.981Z,23.85
2022-08-02T03:48:01.008Z,23.80
2022-08-02T03:50:30.567Z,23.76
2022-08-02T03:53:00.764Z,23.71
2022-08-02T03:55:30.319Z,23.68
2022-08-02T03:58:00.584Z,23.65
2022-08-02T04:00:30.118Z,23.64
2022-08-02T04:02:59.631Z,23.63
2022-08-02T04:05:28.989Z,23.61
2022-08-02T04:08:33.693Z,23.58
2022-08-02T04:11:06.280Z,23.54
2022-08-02T04:13:39.181Z,23.50
2022-08-02T04:16:43.593Z,23.45
2022-08-02T04:19:45.768Z,23.40
2022-08-02T04:22:31.671Z,23.37
2022-08-02T04:25:04.541Z,23.33
2022-08-02T04:27:50.745Z,23.30
2022-08-02T04:30:27.652Z,23.27
2022-08-02T04:32:57.581Z,23.26
2022-08-02T04:35:27.416Z,23.23
2022-08-02T04:38:05.821Z,23.18
2022-08-02T04:40:40.158Z,23.11
2022-08-02T04:43:09.877Z,23.07
2022-08-02T04:45:39.711Z,23.07
2022-08-02T04:48:09.380Z,23.06
2022-08-02T04:50:38.415Z,23.05
2022-08-02T04:53:07.927Z,23.07
2022-08-02T04:55:37.839Z,23.10
2022-08-02T04:58:30.163Z,23.08
2022-08-02T05:00:56.498Z,23.04
2022-08-02T05:03:25.713Z,22.99
2022-08-02T05:05:54.758Z,22.95
2022-08-02T05:08:23.934Z,22.90
2022-08-02T05:10:53.094Z,22.85
2022-08-02T05:13:22.327Z,22.80
2022-08-02T05:15:52.043Z,22.76
2022-08-02T05:18:21.433Z,22.72
2022-08-02T05:20:54.102Z,22.68
2022-08-02T05:23:32.727Z,22.65
2022-08-02T05:26:02.620Z,22.62
2022-08-02T05:28:31.886Z,22.59
2022-08-02T05:31:01.298Z,22.55
2022-08-02T05:33:30.579Z,22.53
2022-08-02T05:36:00.246Z,22.48
2022-08-02T05:38:32.202Z,22.45
2022-08-02T05:41:07.662Z,22.42
2022-08-02T05:43:37.097Z,22.40
2022-08-02T05:46:06.435Z,22.36
2022-08-02T05:48:36.452Z,22.34
2022-08-02T05:51:25.509Z,22.35
2022-08-02T05:54:03.436Z,22.38
2022-08-02T05:56:47.671Z,22.38
2022-08-02T05:59:36.552Z,22.37
2022-08-02T06:02:28.620Z,22.37
2022-08-02T06:05:12.672Z,22.31
2022-08-02T06:07:45.658Z,22.23
2022-08-02T06:10:18.237Z,22.16
2022-08-02T06:12:57.801Z,22.10
2022-08-02T06:15:27.421Z,22.03
2022-08-02T06:17:58.519Z,21.99
2022-08-02T06:20:36.264Z,21.93
2022-08-02T06:23:13.641Z,21.86
2022-08-02T06:25:50.085Z,21.78
2022-08-02T06:28:22.109Z,21.70
2022-08-02T06:30:51.708Z,21.61
2022-08-02T06:33:21.057Z,21.55
2022-08-02T06:36:11.154Z,21.50
2022-08-02T06:39:04.189Z,21.45
2022-08-02T06:41:44.034Z,21.39
2022-08-02T06:44:45.973Z,21.30
2022-08-02T06:47:11.447Z,21.19
2022-08-02T06:49:52.382Z,21.03
2022-08-02T06:52:34.530Z,20.85
2022-08-02T06:55:07.323Z,20.64
2022-08-02T06:57:36.794Z,20.47
2022-08-02T07:00:10.023Z,20.34
2022-08-02T07:02:41.144Z,20.20
2022-08-02T07:05:11.056Z,20.05
2022-08-02T07:07:40.566Z,19.95
2022-08-02T07:10:10.563Z,19.91
2022-08-02T07:12:39.782Z,19.87
2022-08-02T07:15:11.372Z,19.83
2022-08-02T07:17:41.025Z,19.76
2022-08-02T07:20:11.151Z,19.64
2022-08-02T07:22:40.684Z,19.55
2022-08-02T07:25:11.441Z,19.42
2022-08-02T07:27:40.642Z,19.32
2022-08-02T07:30:10.741Z,19.26
2022-08-02T07:32:39.995Z,19.19
2022-08-02T07:35:11.013Z,19.13
2022-08-02T07:37:54.786Z,19.06
2022-08-02T07:40:30.030Z,19.00
2022-08-02T07:43:03.836Z,18.97
2022-08-02T07:45:36.030Z,18.94
2022-08-02T07:48:14.980Z,18.90
2022-08-02T07:50:44.369Z,18.89
2022-08-02T07:53:13.658Z,18.86
2022-08-02T07:55:43.157Z,18.81
2022-08-02T07:58:13.899Z,18.77
2022-08-02T08:00:46.648Z,18.74
2022-08-02T08:03:15.874Z,18.72
2022-08-02T08:05:45.262Z,18.65
2022-08-02T08:08:17.514Z,18.58
2022-08-02T08:10:48.450Z,18.58
2022-08-02T08:13:18.037Z,18.56
2022-08-02T08:15:51.761Z,18.53
2022-08-02T08:18:23.812Z,18.51
2022-08-02T08:20:53.420Z,18.50
2022-08-02T08:23:23.668Z,18.49
2022-08-02T08:25:53.318Z,18.51
2022-08-02T08:28:22.593Z,18.54
2022-08-02T08:30:51.924Z,18.58
2022-08-02T08:33:21.248Z,18.62
2022-08-02T08:35:50.628Z,18.64
2022-08-02T08:38:20.011Z,18.64
2022-08-02T08:40:52.202Z,18.61
2022-08-02T08:43:21.435Z,18.56
2022-08-02T08:45:56.192Z,18.44
2022-08-02T08:48:31.179Z,18.36
2022-08-02T08:51:15.201Z,18.28
2022-08-02T08:53:54.419Z,18.23
2022-08-02T08:56:24.497Z,18.16
2022-08-02T08:58:53.937Z,18.10
2022-08-02T09:01:23.498Z,18.05
2022-08-02T09:03:53.111Z,17.93
2022-08-02T09:06:22.181Z,17.88
2022-08-02T09:08:51.887Z,17.84
2022-08-02T09:11:26.290Z,17.82
2022-08-02T09:14:01.748Z,17.77
2022-08-02T09:16:35.126Z,17.71
2022-08-02T09:19:26.667Z,17.66
2022-08-02T09:22:10.254Z,17.60
2022-08-02T09:24:54.957Z,17.53
2022-08-02T09:27:27.529Z,17.47
2022-08-02T09:30:13.969Z,17.40
2022-08-02T09:32:48.927Z,17.35
2022-08-02T09:36:05.909Z,17.31
2022-08-02T09:38:32.956Z,17.25
2022-08-02T09:41:03.149Z,17.17
2022-08-02T09:44:03.059Z,17.04
2022-08-02T09:46:38.971Z,16.86
2022-08-02T09:49:18.117Z,16.77
2022-08-02T09:51:55.010Z,16.67
2022-08-02T09:54:29.762Z,16.60
2022-08-02T09:57:03.661Z,16.54
2022-08-02T09:59:33.549Z,16.48
2022-08-02T10:02:17.516Z,16.46
2022-08-02T10:04:52.333Z,16.44
2022-08-02T10:07:24.469Z,16.42
2022-08-02T10:09:54.340Z,16.36
2022-08-02T10:12:24.290Z,16.25
2022-08-02T10:14:54.271Z,16.16
2022-08-02T10:17:24.614Z,16.16
2022-08-02T10:20:03.380Z,16.19
2022-08-02T10:22:37.143Z,16.21
2022-08-02T10:25:09.781Z,16.24
2022-08-02T10:28:03.782Z,16.25
2022-08-02T10:30:31.781Z,16.22
2022-08-02T10:33:03.959Z,16.18
2022-08-02T10:35:38.812Z,16.13
2022-08-02T10:38:13.805Z,16.09
2022-08-02T10:40:57.059Z,16.03
2022-08-02T10:43:40.202Z,15.98
2022-08-02T10:46:38.341Z,15.92
2022-08-02T10:49:39.348Z,15.88
2022-08-02T10:52:11.225Z,15.84
2022-08-02T10:54:45.772Z,15.81
2022-08-02T10:57:22.901Z,15.76
2022-08-02T11:00:11.426Z,15.71
2022-08-02T11:02:53.236Z,15.66
2022-08-02T11:05:42.971Z,15.64
2022-08-02T11:08:23.983Z,15.64
2022-08-02T11:10:53.450Z,15.63
2022-08-02T11:13:22.916Z,15.61
2022-08-02T11:15:55.106Z,15.61
2022-08-02T11:18:45.883Z,15.59
2022-08-02T11:21:33.749Z,15.55
2022-08-02T11:24:31.471Z,15.53
2022-08-02T11:27:03.753Z,15.48
2022-08-02T11:29:41.655Z,15.44
2022-08-02T11:32:30.488Z,15.42
2022-08-02T11:35:01.605Z,15.34
2022-08-02T11:37:37.671Z,15.25
2022-08-02T11:40:19.791Z,15.16
2022-08-02T11:42:54.820Z,15.09
2022-08-02T11:45:31.129Z,15.04
2022-08-02T11:48:05.638Z,14.97
2022-08-02T11:50:35.163Z,14.91
2022-08-02T11:53:13.638Z,14.85
2022-08-02T11:55:42.956Z,14.79
2022-08-02T11:58:12.928Z,14.74
2022-08-02T12:00:42.069Z,14.69
2022-08-02T12:03:17.845Z,14.66
2022-08-02T12:06:05.042Z,14.56
2022-08-02T12:08:39.531Z,14.47
2022-08-02T12:11:08.567Z,14.38
2022-08-02T12:13:57.077Z,14.33
2022-08-02T12:16:52.870Z,14.27
2022-08-02T12:19:29.988Z,14.20
2022-08-02T12:22:20.257Z,14.17
2022-08-02T12:24:57.688Z,14.14
2022-08-02T12:27:37.640Z,14.13
2022-08-02T12:30:12.150Z,14.15
2022-08-02T12:32:43.328Z,14.12
2022-08-02T12:35:26.048Z,14.10
2022-08-02T12:37:57.646Z,14.10
2022-08-02T12:40:34.756Z,14.11
2022-08-02T12:43:08.105Z,14.09
2022-08-02T12:45:58.511Z,14.08
2022-08-02T12:48:52.170Z,14.10
2022-08-02T12:51:54.852Z,14.05
2022-08-02T12:54:32.169Z,14.02
2022-08-02T12:57:21.939Z,13.99
2022-08-02T12:59:55.861Z,13.99
2022-08-02T13:02:25.129Z,14.02
2022-08-02T13:04:54.536Z,14.05
2022-08-02T13:07:24.017Z,14.10
2022-08-02T13:10:02.684Z,14.16
2022-08-02T13:12:32.790Z,14.20
2022-08-02T13:15:02.027Z,14.25
2022-08-02T13:17:31.135Z,14.28
2022-08-02T13:20:01.729Z,14.29
2022-08-02T13:22:31.293Z,14.29
2022-08-02T13:25:02.370Z,14.30
2022-08-02T13:27:31.867Z,14.28
2022-08-02T13:30:02.661Z,14.28
2022-08-02T13:32:32.130Z,14.31
2022-08-02T13:35:01.615Z,14.32
2022-08-02T13:37:31.003Z,14.33
2022-08-02T13:40:20.648Z,14.34
2022-08-02T13:42:50.516Z,14.36
2022-08-02T13:45:19.921Z,14.31
2022-08-02T13:48:04.454Z,14.29
2022-08-02T13:50:35.221Z,14.30
2022-08-02T13:53:05.002Z,14.30
2022-08-02T13:55:34.671Z,14.32
2022-08-02T13:58:06.022Z,14.34
2022-08-02T14:00:36.305Z,14.41
2022-08-02T14:03:12.290Z,14.47
2022-08-02T14:05:47.658Z,14.55
2022-08-02T14:08:24.004Z,14.59
2022-08-02T14:10:54.489Z,14.64
2022-08-02T14:13:23.885Z,14.77
2022-08-02T14:15:53.293Z,14.96
2022-08-02T14:18:22.476Z,15.10
2022-08-02T14:20:51.880Z,15.14
2022-08-02T14:23:50.380Z,15.10
2022-08-02T14:26:27.343Z,15.13
2022-08-02T14:28:58.488Z,15.17
2022-08-02T14:31:27.979Z,15.23
2022-08-02T14:33:58.981Z,15.32
2022-08-02T14:36:28.621Z,15.42
2022-08-02T14:38:58.862Z,15.49
2022-08-02T14:41:28.161Z,15.51
2022-08-02T14:44:06.553Z,15.53
2022-08-02T14:46:41.426Z,15.67
2022-08-02T14:49:15.666Z,15.88
2022-08-02T14:51:57.274Z,16.02
2022-08-02T14:54:31.178Z,16.08
2022-08-02T14:57:03.214Z,16.13
2022-08-02T14:59:33.312Z,16.17
2022-08-02T15:02:03.406Z,16.24
2022-08-02T15:04:42.523Z,16.36
2022-08-02T15:07:14.271Z,16.51
2022-08-02T15:09:43.569Z,16.65
2022-08-02T15:12:14.171Z,16.73
2022-08-02T15:14:44.125Z,16.70
2022-08-02T15:17:13.847Z,16.66
2022-08-02T15:19:57.621Z,16.61
2022-08-02T15:22:29.915Z,16.58
2022-08-02T15:25:00.731Z,16.57
2022-08-02T15:27:29.901Z,16.45
2022-08-02T15:30:01.257Z,16.33
2022-08-02T15:32:30.728Z,16.27
2022-08-02T15:34:59.834Z,16.25
2022-08-02T15:37:31.054Z,16.19
2022-08-02T15:40:04.555Z,16.15
2022-08-02T15:42:33.921Z,16.13
2022-08-02T15:45:03.153Z,16.11
2022-08-02T15:47:32.383Z,16.07
2022-08-02T15:50:01.940Z,16.07
2022-08-02T15:52:35.002Z,16.14
2022-08-02T15:55:07.125Z,16.23
2022-08-02T15:57:36.922Z,16.31
2022-08-02T16:00:14.178Z,16.38
2022-08-02T16:02:48.690Z,16.49
2022-08-02T16:05:19.139Z,16.60
2022-08-02T16:07:48.731Z,16.70
2022-08-02T16:10:18.924Z,16.80
2022-08-02T16:12:48.057Z,16.94
2022-08-02T16:15:17.445Z,17.05
2022-08-02T16:17:53.773Z,17.15
2022-08-02T16:20:27.501Z,17.23
2022-08-02T16:22:56.699Z,17.32
2022-08-02T16:25:26.980Z,17.39
2022-08-02T16:27:57.587Z,17.45
2022-08-02T16:30:37.484Z,17.50
2022-08-02T16:33:07.465Z,17.55
2022-08-02T16:35:36.604Z,17.62
2022-08-02T16:38:05.869Z,17.70
2022-08-02T16:40:35.630Z,17.81
2022-08-02T16:43:09.044Z,17.92
2022-08-02T16:45:39.025Z,18.05
2022-08-02T16:48:09.366Z,18.19
2022-08-02T16:50:39.275Z,18.38
2022-08-02T16:53:08.782Z,18.53
2022-08-02T16:55:40.440Z,18.66
2022-08-02T16:58:21.493Z,18.89
2022-08-02T17:00:51.522Z,19.12
2022-08-02T17:03:21.050Z,19.36
2022-08-02T17:05:56.192Z,19.54
2022-08-02T17:08:32.220Z,19.58
2022-08-02T17:11:03.838Z,19.63
2022-08-02T17:13:37.814Z,19.71
2022-08-02T17:16:20.985Z,19.78
2022-08-02T17:18:56.467Z,19.96
2022-08-02T17:21:26.005Z,20.15
2022-08-02T17:24:08.428Z,20.33
2022-08-02T17:26:39.921Z,20.53
2022-08-02T17:29:14.487Z,20.69
2022-08-02T17:32:02.355Z,20.89
2022-08-02T17:34:38.357Z,21.14
2022-08-02T17:37:08.047Z,21.36
2022-08-02T17:39:44.066Z,21.50
2022-08-02T17:42:24.202Z,21.64
2022-08-02T17:45:07.080Z,21.77
2022-08-02T17:48:04.567Z,21.77
2022-08-02T17:50:38.922Z,21.71
2022-08-02T17:53:08.404Z,21.66
2022-08-02T17:55:42.439Z,21.67
2022-08-02T17:58:12.781Z,21.77
2022-08-02T18:00:42.202Z,21.93
2022-08-02T18:03:14.195Z,22.07
2022-08-02T18:05:53.357Z,22.17
2022-08-02T18:08:25.423Z,22.23
2022-08-02T18:10:56.741Z,22.24
2022-08-02T18:13:32.800Z,22.26
2022-08-02T18:16:03.224Z,22.37
2022-08-02T18:18:33.281Z,22.45
2022-08-02T18:21:16.063Z,22.48
2022-08-02T18:23:58.451Z,22.44
2022-08-02T18:26:29.874Z,22.49
2022-08-02T18:29:04.670Z,22.59
2022-08-02T18:31:39.572Z,22.69
2022-08-02T18:34:09.783Z,22.76
2022-08-02T18:36:47.459Z,22.76
2022-08-02T18:39:18.413Z,22.72
2022-08-02T18:41:48.209Z,22.67
2022-08-02T18:44:19.631Z,22.65
2022-08-02T18:46:49.608Z,22.66
2022-08-02T18:49:19.031Z,22.66
2022-08-02T18:51:48.240Z,22.74
2022-08-02T18:58:18.698Z,22.89
2022-08-02T18:59:56.644Z,22.94
2022-08-02T19:02:28.010Z,22.99
2022-08-02T19:04:57.527Z,23.05
2022-08-02T19:07:50.747Z,23.11
2022-08-02T19:10:16.559Z,23.18
2022-08-02T19:12:46.160Z,23.13
2022-08-02T19:15:22.547Z,23.07
2022-08-02T19:17:54.597Z,23.01
2022-08-02T19:20:26.778Z,22.99
2022-08-02T19:22:59.091Z,23.05
2022-08-02T19:25:28.375Z,23.15
2022-08-02T19:28:08.446Z,23.20
2022-08-02T19:30:37.861Z,23.17
2022-08-02T19:33:09.551Z,23.20
2022-08-02T19:36:02.132Z,23.31
2022-08-02T19:38:28.740Z,23.42
2022-08-02T19:40:58.304Z,23.43
2022-08-02T19:44:27.294Z,23.43
2022-08-02T19:46:17.326Z,23.54
2022-08-02T19:48:47.518Z,23.56
2022-08-02T19:51:16.999Z,23.54
2022-08-02T19:54:06.582Z,23.50
2022-08-02T19:56:41.374Z,23.48
2022-08-02T19:59:13.008Z,23.49
2022-08-02T20:01:48.709Z,23.45
2022-08-02T20:04:22.946Z,23.43
2022-08-02T20:06:52.993Z,23.43
2022-08-02T20:09:33.557Z,23.45
2022-08-02T20:12:16.727Z,23.46
2022-08-02T20:14:51.002Z,23.49
2022-08-02T20:17:21.913Z,23.60
2022-08-02T20:19:51.385Z,23.74
2022-08-02T20:22:21.602Z,23.85
2022-08-02T20:24:51.190Z,23.94
2022-08-02T20:27:23.847Z,24.02
2022-08-02T20:29:54.059Z,24.10
2022-08-02T20:32:24.061Z,24.19
2022-08-02T20:34:53.870Z,24.20
2022-08-02T20:38:01.317Z,24.18
2022-08-02T20:40:16.740Z,24.20
2022-08-02T20:42:48.806Z,24.32
2022-08-02T20:45:21.253Z,24.30
2022-08-02T20:47:52.531Z,24.28
2022-08-02T20:50:41.882Z,24.31
2022-08-02T20:53:23.965Z,24.32
2022-08-02T20:55:57.091Z,24.32
2022-08-02T20:58:28.020Z,24.32
2022-08-02T21:01:00.405Z,24.37
2022-08-02T21:03:38.764Z,24.39
2022-08-02T21:06:15.155Z,24.43
2022-08-02T21:08:46.468Z,24.51
2022-08-02T21:11:16.160Z,24.59
2022-08-02T21:13:46.546Z,24.64
2022-08-02T21:16:18.531Z,24.62
2022-08-02T21:18:52.322Z,24.61
2022-08-02T21:21:21.843Z,24.64
2022-08-02T21:23:54.456Z,24.65
2022-08-02T21:26:28.532Z,24.62
2022-08-02T21:29:03.580Z,24.64
2022-08-02T21:31:35.576Z,24.59
2022-08-02T21:36:57.216Z,24.39
2022-08-02T21:39:27.561Z,24.35
2022-08-02T21:41:56.916Z,24.34
2022-08-02T21:44:26.213Z,24.37
2022-08-02T21:46:58.337Z,24.44
2022-08-02T21:50:08.415Z,24.51
2022-08-02T21:52:21.036Z,24.54
2022-08-02T21:54:59.134Z,24.52
2022-08-02T22:00:28.504Z,24.39
2022-08-02T22:02:58.376Z,24.44
2022-08-02T22:05:28.467Z,24.50
2022-08-02T22:08:09.915Z,24.47
2022-08-02T22:11:00.283Z,24.50
2022-08-02T22:13:38.722Z,24.49
2022-08-02T22:16:18.390Z,24.48
2022-08-02T22:18:52.496Z,24.41
2022-08-02T22:21:29.035Z,24.32
2022-08-02T22:24:19.407Z,24.24
2022-08-02T22:26:49.101Z,24.22
2022-08-02T22:29:18.186Z,24.26
2022-08-02T22:31:48.078Z,24.29
2022-08-02T22:34:36.782Z,24.34
2022-08-02T22:37:07.806Z,24.43
2022-08-02T22:40:06.057Z,24.53
2022-08-02T22:42:40.131Z,24.53
2022-08-02T22:45:11.095Z,24.56
2022-08-02T22:47:50.986Z,24.54
2022-08-02T22:50:21.177Z,24.56
2022-08-02T22:52:50.503Z,24.55
2022-08-02T22:55:21.366Z,24.51
2022-08-02T22:57:57.204Z,24.48
2022-08-02T22:58:45.840Z,22.82
2022-08-02T22:59:03.124Z,24.51
2022-08-02T22:59:03.804Z,24.47
2022-08-02T23:00:28.193Z,24.51
2022-08-02T23:02:57.766Z,24.52
2022-08-02T23:05:27.854Z,24.49
2022-08-02T23:07:57.380Z,24.44
2022-08-02T23:10:26.623Z,24.37
2022-08-02T23:13:00.291Z,24.27
2022-08-02T23:15:49.543Z,24.19
2022-08-02T23:18:37.120Z,24.14
2022-08-02T23:21:06.601Z,24.11
2022-08-02T23:23:35.789Z,24.11
2022-08-02T23:26:05.294Z,24.15
2022-08-02T23:28:34.502Z,24.14
2022-08-02T23:31:30.057Z,24.12
2022-08-02T23:34:04.626Z,24.10
2022-08-02T23:36:35.501Z,24.10
2022-08-02T23:39:05.070Z,24.12
2022-08-02T23:41:37.171Z,24.09
2022-08-02T23:44:15.092Z,24.04
2022-08-02T23:46:48.635Z,23.98
2022-08-02T23:49:19.057Z,23.92
2022-08-02T23:51:49.602Z,23.88
2022-08-02T23:54:19.997Z,23.90
2022-08-02T23:56:49.505Z,23.94
2022-08-02T23:59:19.966Z,23.97
